createdAt,value
2018-11-12T00:02:25.772Z,2.93
2018-11-12T00:06:34.084Z,2.43
2018-11-12T00:10:42.396Z,2.23
2018-11-12T00:14:50.721Z,2.52
2018-11-12T00:18:59.020Z,1.93
2018-11-12T00:23:07.319Z,2.30
2018-11-12T00:27:15.605Z,2.43
2018-11-12T00:31:23.962Z,3.27
2018-11-12T00:35:32.279Z,2.80
2018-11-12T00:39:40.618Z,2.60
2018-11-12T00:43:49.014Z,2.40
2018-11-12T00:47:57.429Z,2.23
2018-11-12T00:52:06.417Z,2.73
2018-11-12T00:56:14.748Z,2.67
2018-11-12T01:00:23.081Z,2.90
2018-11-12T01:04:31.489Z,3.00
2018-11-12T01:08:40.125Z,3.00
2018-11-12T01:12:48.501Z,2.80
2018-11-12T01:16:56.805Z,3.80
2018-11-12T01:21:05.616Z,3.40
2018-11-12T01:25:14.380Z,3.63
2018-11-12T01:29:22.761Z,3.37
2018-11-12T01:33:31.204Z,3.33
2018-11-12T01:37:39.513Z,3.53
2018-11-12T01:41:47.884Z,4.50
2018-11-12T01:45:56.192Z,3.70
2018-11-12T01:50:05.561Z,4.40
2018-11-12T01:54:13.948Z,3.73
2018-11-12T01:58:22.255Z,4.30
2018-11-12T02:02:30.956Z,4.37
2018-11-12T02:06:39.251Z,4.50
2018-11-12T02:10:47.620Z,4.63
2018-11-12T02:14:55.964Z,4.33
2018-11-12T02:19:04.433Z,5.03
2018-11-12T02:23:12.753Z,4.60
2018-11-12T02:27:21.042Z,4.23
2018-11-12T02:31:29.320Z,5.10
2018-11-12T02:35:37.617Z,5.27
2018-11-12T02:39:45.894Z,5.63
2018-11-12T02:43:54.216Z,5.70
2018-11-12T02:48:02.510Z,5.20
2018-11-12T02:52:10.809Z,5.13
2018-11-12T02:56:18.912Z,4.13
2018-11-12T03:00:27.169Z,3.70
2018-11-12T03:04:35.470Z,3.90
2018-11-12T03:08:43.790Z,3.70
2018-11-12T03:12:52.192Z,4.37
2018-11-12T03:17:00.437Z,4.67
2018-11-12T03:21:08.729Z,4.70
2018-11-12T03:25:18.378Z,4.40
2018-11-12T03:29:26.745Z,4.63
2018-11-12T03:33:35.054Z,5.13
2018-11-12T03:37:44.482Z,4.57
2018-11-12T03:41:52.853Z,4.30
2018-11-12T03:46:15.367Z,3.87
2018-11-12T03:50:33.284Z,3.97
2018-11-12T03:54:41.730Z,4.20
2018-11-12T03:58:50.065Z,3.47
2018-11-12T04:02:58.414Z,5.03
2018-11-12T04:07:06.776Z,4.30
2018-11-12T04:11:15.637Z,3.70
2018-11-12T04:15:25.105Z,3.90
2018-11-12T04:19:33.406Z,4.60
2018-11-12T04:23:41.707Z,4.03
2018-11-12T04:27:50.067Z,3.65
2018-11-12T04:31:58.364Z,4.50
2018-11-12T04:36:06.695Z,4.70
2018-11-12T04:40:16.401Z,4.77
2018-11-12T04:44:24.730Z,5.13
2018-11-12T04:48:33.031Z,5.27
2018-11-12T04:52:41.553Z,5.10
2018-11-12T04:56:50.660Z,4.17
2018-11-12T05:00:59.006Z,4.20
2018-11-12T05:05:08.114Z,5.20
2018-11-12T05:09:16.405Z,4.47
2018-11-12T05:13:24.691Z,4.10
2018-11-12T05:17:32.975Z,5.57
2018-11-12T05:21:41.361Z,4.80
2018-11-12T05:25:49.702Z,4.93
2018-11-12T05:29:58.073Z,5.30
2018-11-12T05:34:06.545Z,5.20
2018-11-12T05:38:14.919Z,5.30
2018-11-12T05:42:23.224Z,6.10
2018-11-12T05:46:31.578Z,5.00
2018-11-12T05:50:39.919Z,5.83
2018-11-12T05:54:48.283Z,6.87
2018-11-12T05:58:56.586Z,5.63
2018-11-12T06:03:04.942Z,6.57
2018-11-12T06:07:13.297Z,5.33
2018-11-12T06:11:21.640Z,5.30
2018-11-12T06:15:29.940Z,5.90
2018-11-12T06:19:38.214Z,5.97
2018-11-12T06:23:46.517Z,5.27
2018-11-12T06:27:55.291Z,6.00
2018-11-12T06:32:03.630Z,6.20
2018-11-12T06:36:11.657Z,6.10
2018-11-12T06:40:22.194Z,6.30
2018-11-12T06:44:30.494Z,6.63
2018-11-12T06:48:38.805Z,6.73
2018-11-12T06:52:47.186Z,6.07
2018-11-12T06:56:55.449Z,6.43
2018-11-12T07:01:03.831Z,6.23
2018-11-12T07:05:12.373Z,6.47
2018-11-12T07:09:20.761Z,6.50
2018-11-12T07:13:29.098Z,5.87
2018-11-12T07:17:37.500Z,6.00
2018-11-12T07:21:45.810Z,6.80
2018-11-12T07:25:54.114Z,4.93
2018-11-12T07:30:02.473Z,5.40
2018-11-12T07:34:10.530Z,4.53
2018-11-12T07:38:18.909Z,5.37
2018-11-12T07:42:27.232Z,4.50
2018-11-12T07:46:35.526Z,5.47
2018-11-12T07:50:43.917Z,5.40
2018-11-12T07:54:52.237Z,4.60
2018-11-12T07:59:00.280Z,4.33
2018-11-12T08:03:10.196Z,5.10
2018-11-12T08:07:18.407Z,4.70
2018-11-12T08:11:26.687Z,4.47
2018-11-12T08:15:34.993Z,5.37
2018-11-12T08:19:43.351Z,5.40
2018-11-12T08:23:51.698Z,5.67
2018-11-12T08:28:00.003Z,6.50
2018-11-12T08:32:08.313Z,4.80
2018-11-12T08:36:16.661Z,6.10
2018-11-12T08:40:26.171Z,5.73
2018-11-12T08:44:34.420Z,6.83
2018-11-12T08:48:42.745Z,7.40
2018-11-12T08:52:51.827Z,7.57
2018-11-12T08:57:00.159Z,8.00
2018-11-12T09:01:08.429Z,9.97
2018-11-12T09:05:17.994Z,9.70
2018-11-12T09:09:26.343Z,9.40
2018-11-12T09:13:34.740Z,7.47
2018-11-12T09:17:43.892Z,7.90
2018-11-12T09:21:52.172Z,6.70
2018-11-12T09:26:00.478Z,8.53
2018-11-12T09:30:13.498Z,9.03
2018-11-12T09:34:21.840Z,7.30
2018-11-12T09:38:30.229Z,8.47
2018-11-12T09:42:38.521Z,8.13
2018-11-12T09:46:46.785Z,9.20
2018-11-12T09:50:55.077Z,8.50
2018-11-12T09:55:03.430Z,9.57
2018-11-12T09:59:11.873Z,11.90
2018-11-12T10:03:26.801Z,12.63
2018-11-12T10:07:34.566Z,13.00
2018-11-12T10:11:43.552Z,13.30
2018-11-12T10:15:53.188Z,13.20
2018-11-12T10:19:58.773Z,11.80
2018-11-12T10:24:07.164Z,11.23
2018-11-12T10:28:16.024Z,11.00
2018-11-12T10:32:24.271Z,9.60
2018-11-12T10:36:32.589Z,11.47
2018-11-12T10:40:40.935Z,11.60
2018-11-12T10:44:49.209Z,11.67
2018-11-12T10:48:57.537Z,12.00
2018-11-12T10:53:05.975Z,12.53
2018-11-12T10:57:14.274Z,16.23
2018-11-12T11:01:28.143Z,16.77
2018-11-12T11:05:37.564Z,19.83
2018-11-12T11:09:45.852Z,17.43
2018-11-12T11:13:54.268Z,22.17
2018-11-12T11:18:02.641Z,21.00
2018-11-12T11:22:10.961Z,20.97
2018-11-12T11:26:19.267Z,20.23
2018-11-12T11:30:27.683Z,19.13
2018-11-12T11:34:35.975Z,16.63
2018-11-12T11:38:44.292Z,17.23
2018-11-12T11:42:52.614Z,18.00
2018-11-12T11:47:00.951Z,18.87
2018-11-12T11:51:09.300Z,17.83
2018-11-12T11:55:18.910Z,20.13
2018-11-12T11:59:27.253Z,23.23
2018-11-12T12:03:35.621Z,22.30
2018-11-12T12:07:43.998Z,22.60
2018-11-12T12:11:52.348Z,21.40
2018-11-12T12:16:00.730Z,21.07
2018-11-12T12:20:10.990Z,19.80
2018-11-12T12:24:19.335Z,20.40
2018-11-12T12:28:27.638Z,17.97
2018-11-12T12:32:35.971Z,15.57
2018-11-12T12:36:44.400Z,16.20
2018-11-12T12:40:52.689Z,18.87
2018-11-12T12:45:01.137Z,17.93
2018-11-12T12:49:09.283Z,18.57
2018-11-12T12:53:17.623Z,18.37
2018-11-12T12:57:25.958Z,19.73
2018-11-12T13:01:34.357Z,19.30
2018-11-12T13:05:42.643Z,22.03
2018-11-12T13:09:51.094Z,23.90
2018-11-12T13:13:59.452Z,19.47
2018-11-12T13:18:07.759Z,20.57
2018-11-12T13:22:16.112Z,17.00
2018-11-12T13:26:24.469Z,13.70
2018-11-12T13:30:32.791Z,13.03
2018-11-12T13:34:41.164Z,12.13
2018-11-12T13:38:49.474Z,9.35
2018-11-12T13:42:59.312Z,8.90
2018-11-12T13:47:07.669Z,9.07
2018-11-12T13:51:15.976Z,8.07
2018-11-12T13:55:24.772Z,8.03
2018-11-12T13:59:33.092Z,7.83
2018-11-12T14:03:41.406Z,7.23
2018-11-12T14:07:49.757Z,6.33
2018-11-12T14:11:58.034Z,7.83
2018-11-12T14:16:06.336Z,7.67
2018-11-12T14:20:14.725Z,8.07
2018-11-12T14:24:22.957Z,7.43
2018-11-12T14:28:31.413Z,8.23
2018-11-12T14:32:39.610Z,8.00
2018-11-12T14:36:47.968Z,9.67
2018-11-12T14:40:56.269Z,8.53
2018-11-12T14:45:04.919Z,9.23
2018-11-12T14:49:13.341Z,9.60
2018-11-12T14:53:21.859Z,9.00
2018-11-12T14:57:30.027Z,9.50
2018-11-12T15:01:38.370Z,9.73
2018-11-12T15:05:46.401Z,10.27
2018-11-12T15:09:54.721Z,8.90
2018-11-12T15:14:02.964Z,9.47
2018-11-12T15:18:11.281Z,10.13
2018-11-12T15:22:19.594Z,9.57
2018-11-12T15:26:28.647Z,9.53
2018-11-12T15:30:36.947Z,9.53
2018-11-12T15:34:45.229Z,9.67
2018-11-12T15:38:53.585Z,9.97
2018-11-12T15:43:01.907Z,10.23
2018-11-12T15:47:10.544Z,9.83
2018-11-12T15:51:18.967Z,9.93
2018-11-12T15:55:27.348Z,11.33
2018-11-12T15:59:35.678Z,13.62
2018-11-12T16:03:44.005Z,11.70
2018-11-12T16:07:52.301Z,11.00
2018-11-12T16:12:00.715Z,11.20
2018-11-12T16:16:08.941Z,11.47
2018-11-12T16:20:21.406Z,10.97
2018-11-12T16:24:29.752Z,10.37
2018-11-12T16:28:38.000Z,11.30
2018-11-12T16:32:47.020Z,11.17
2018-11-12T16:36:55.289Z,11.97
2018-11-12T16:41:03.704Z,11.60
2018-11-12T16:45:12.822Z,9.70
2018-11-12T16:49:21.194Z,11.73
2018-11-12T16:53:29.961Z,11.43
2018-11-12T16:57:38.215Z,12.20
2018-11-12T17:01:47.204Z,12.43
2018-11-12T17:05:55.479Z,12.10
2018-11-12T17:10:03.823Z,13.27
2018-11-12T17:14:12.145Z,12.90
2018-11-12T17:18:20.405Z,12.40
2018-11-12T17:22:28.764Z,12.83
2018-11-12T17:26:37.109Z,13.20
2018-11-12T17:30:45.451Z,13.10
2018-11-12T17:34:53.868Z,13.30
2018-11-12T17:39:02.306Z,13.80
2018-11-12T17:43:10.758Z,17.03
2018-11-12T17:47:19.042Z,15.70
2018-11-12T17:51:27.339Z,13.83
2018-11-12T17:55:35.616Z,16.52
2018-11-12T17:59:43.928Z,16.10
2018-11-12T18:03:52.646Z,18.30
2018-11-12T18:08:00.965Z,16.80
2018-11-12T18:12:09.296Z,18.83
2018-11-12T18:16:17.634Z,17.17
2018-11-12T18:20:27.152Z,16.40
2018-11-12T18:24:35.461Z,17.53
2018-11-12T18:28:43.771Z,19.87
2018-11-12T18:32:53.195Z,18.30
2018-11-12T18:37:01.501Z,19.87
2018-11-12T18:41:09.638Z,21.07
2018-11-12T18:45:22.845Z,19.03
2018-11-12T18:49:31.170Z,19.00
2018-11-12T18:53:39.472Z,18.90
2018-11-12T18:57:48.511Z,17.63
2018-11-12T19:01:56.796Z,18.93
2018-11-12T19:06:05.513Z,18.20
2018-11-12T19:10:15.456Z,17.43
2018-11-12T19:14:23.725Z,17.00
2018-11-12T19:18:32.040Z,17.47
2018-11-12T19:22:40.324Z,17.53
2018-11-12T19:26:48.601Z,19.00
2018-11-12T19:30:56.865Z,16.97
2018-11-12T19:35:06.292Z,21.60
2018-11-12T19:39:14.565Z,17.63
2018-11-12T19:43:22.836Z,17.43
2018-11-12T19:47:31.089Z,18.70
2018-11-12T19:51:39.531Z,16.90
2018-11-12T19:55:47.850Z,20.27
2018-11-12T19:59:56.183Z,18.27
2018-11-12T20:04:04.511Z,18.00
2018-11-12T20:08:12.610Z,19.33
2018-11-12T20:12:20.906Z,18.73
2018-11-12T20:16:29.209Z,19.60
2018-11-12T20:20:37.536Z,20.33
2018-11-12T20:24:45.925Z,18.67
2018-11-12T20:28:54.272Z,19.30
2018-11-12T20:33:02.580Z,18.93
2018-11-12T20:37:10.874Z,20.63
2018-11-12T20:41:19.217Z,19.43
2018-11-12T20:45:27.586Z,17.37
2018-11-12T20:49:35.873Z,17.43
2018-11-12T20:53:44.166Z,18.80
2018-11-12T20:57:52.480Z,17.33
2018-11-12T21:02:00.920Z,17.60
2018-11-12T21:06:09.192Z,18.20
2018-11-12T21:10:18.433Z,19.53
2018-11-12T21:14:26.703Z,17.73
2018-11-12T21:18:35.009Z,16.07
2018-11-12T21:22:43.324Z,17.30
2018-11-12T21:26:51.593Z,18.43
2018-11-12T21:30:59.901Z,18.60
2018-11-12T21:35:08.250Z,21.17
2018-11-12T21:39:16.536Z,19.43
2018-11-12T21:43:25.026Z,18.80
2018-11-12T21:47:33.184Z,17.77
2018-11-12T21:51:41.430Z,17.90
2018-11-12T21:55:49.778Z,18.40
2018-11-12T21:59:58.121Z,19.20
2018-11-12T22:04:06.469Z,17.03
2018-11-12T22:08:14.547Z,20.30
2018-11-12T22:12:22.838Z,18.90
2018-11-12T22:16:31.225Z,18.53
2018-11-12T22:20:39.563Z,19.63
2018-11-12T22:24:47.987Z,18.50
2018-11-12T22:28:56.303Z,18.67
2018-11-12T22:33:04.618Z,21.63
2018-11-12T22:37:12.949Z,19.53
2018-11-12T22:41:21.291Z,22.77
2018-11-12T22:45:29.613Z,22.37
2018-11-12T22:49:37.774Z,24.13
2018-11-12T22:53:46.098Z,21.40
2018-11-12T22:57:54.335Z,22.20
2018-11-12T23:02:02.622Z,20.43
2018-11-12T23:06:11.505Z,20.83
2018-11-12T23:10:20.285Z,19.62
2018-11-12T23:14:28.574Z,20.70
2018-11-12T23:18:36.834Z,22.83
2018-11-12T23:22:46.040Z,19.50
2018-11-12T23:26:54.316Z,21.13
2018-11-12T23:31:02.608Z,20.00
2018-11-12T23:35:12.490Z,20.53
2018-11-12T23:39:20.830Z,17.93
2018-11-12T23:43:29.112Z,20.40
2018-11-12T23:47:37.837Z,21.70
2018-11-12T23:51:46.220Z,19.40
2018-11-12T23:55:54.542Z,21.97
